Hikosan Maru — JD3735 — position and weather

sailwx.info

Track history (hours):
 
Tides and Currents Weather Stations Pressure Air Temp Water Temp Dewpoint Dewpoint Depression Visibility Wind Speed Wind Dir Waves Ship Positions

Hikosan Maru

Last reported at 2018-Jun-06 06:48 UTC. Time now 2018-Jun-18 22:25 UTC.
Position N 34°24' E 134°14'.
Warning: this ship's position is 12 days out of date.

Length 74 m; draft 4.2 m.

Type: Cargo ship. MMSI: 431005844.

Date/timePositionNaut miles runAvg speedWind from/ knotsBaromVisibWave heightAir tempDewpointWater temp
2018-Jun-06 06:48N 34°24' E 134°14'611.5
2018-Jun-06 06:18N 34°25' E 134°21'311.6
2018-Jun-06 06:00N 34°27' E 134°25'611.8
2018-Jun-06 05:30N 34°29' E 134°31'611.7
2018-Jun-06 05:00N 34°31' E 134°38'612.0
2018-Jun-06 04:30N 34°33' E 134°45'613.1
2018-Jun-06 04:00N 34°35' E 134°52'612.5
2018-Jun-06 03:30N 34°38' E 134°59'611.4
2018-Jun-06 02:59N 34°36' E 135°06'612.4
2018-Jun-06 02:30N 34°37' E 135°13'510.6
2018-Jun-06 02:00N 34°40' E 135°18'3 4.1
2018-Jun-06 01:22N 34°42' E 135°16'0 0.0
2018-Jun-06 00:46N 34°42' E 135°16'0 0.0
2018-Jun-06 00:28N 34°42' E 135°16'0 0.0
2018-Jun-05 23:40N 34°42' E 135°16'0 0.0
2018-Jun-05 23:22N 34°42' E 135°16'0 0.0
2018-Jun-05 22:58N 34°42' E 135°16'1 2.1
2018-Jun-05 22:30N 34°42' E 135°17'4 7.0
2018-Jun-05 22:00N 34°39' E 135°19'0 0.1
2018-Jun-05 21:20N 34°39' E 135°19'0 0.0
2018-Jun-05 20:56N 34°39' E 135°19'0 0.0
2018-Jun-05 20:26N 34°39' E 135°19'0 0.0
2018-Jun-05 19:56N 34°39' E 135°19'0 0.0
2018-Jun-05 19:20N 34°39' E 135°19'0 0.0
2018-Jun-05 18:56N 34°39' E 135°19'0 0.0
2018-Jun-05 18:20N 34°39' E 135°19'0 0.0
2018-Jun-05 17:56N 34°39' E 135°19'0 0.0
2018-Jun-05 17:29N 34°39' E 135°19'0 0.0
2018-Jun-05 16:56N 34°39' E 135°19'0 0.0
2018-Jun-05 16:26N 34°39' E 135°19'0 0.0
2018-Jun-05 15:56N 34°39' E 135°19'0 0.0
2018-Jun-05 15:26N 34°39' E 135°19'0 0.0
2018-Jun-05 14:50N 34°39' E 135°19'0 0.0
2018-Jun-05 14:26N 34°39' E 135°19'0 0.0
2018-Jun-05 13:50N 34°39' E 135°19'0 0.1
2018-Jun-05 13:20N 34°39' E 135°19'0 0.0
2018-Jun-05 12:56N 34°39' E 135°19'0 0.0
2018-Jun-05 12:26N 34°39' E 135°19'0 0.0
2018-Jun-05 12:00N 34°39' E 135°19'4 9.0
2018-Jun-05 11:30N 34°36' E 135°15'611.9
2018-Jun-05 11:00N 34°34' E 135°08'611.9
2018-Jun-05 10:30N 34°37' E 135°02'713.1
2018-Jun-05 09:57N 34°35' E 134°53'612.8
2018-Jun-05 09:30N 34°33' E 134°47'611.8
2018-Jun-05 09:00N 34°30' E 134°40'611.7
2018-Jun-05 08:30N 34°28' E 134°34'611.5
2018-Jun-05 08:00N 34°26' E 134°27'611.7
2018-Jun-05 07:29N 34°24' E 134°20'18 0.8
2018-Jun-04 07:46N 34°26' E 133°58'19 9.9
2018-Jun-04 05:50N 34°36' E 134°18'1611.2
2018-Jun-04 04:26N 34°42' E 134°36'511.1
2018-Jun-04 03:58N 34°43' E 134°42'5 0.9
2018-Jun-03 21:56N 34°44' E 134°48'1 3.1
2018-Jun-03 21:30N 34°43' E 134°47'0 0.0
2018-Jun-03 17:59N 34°43' E 134°47'0 0.1
2018-Jun-03 17:26N 34°43' E 134°47'0 0.0
2018-Jun-03 15:41N 34°43' E 134°47'0 0.0
2018-Jun-03 15:23N 34°43' E 134°47'0 0.0
2018-Jun-03 14:53N 34°43' E 134°47'0 0.0
2018-Jun-03 14:29N 34°43' E 134°47'0 0.0
2018-Jun-03 13:59N 34°43' E 134°47'0 0.0
2018-Jun-03 13:23N 34°43' E 134°47'0 0.0
2018-Jun-03 12:59N 34°43' E 134°47'0 0.0
2018-Jun-03 11:14N 34°43' E 134°47'0 0.0
2018-Jun-03 10:59N 34°43' E 134°47'0 0.0
2018-Jun-03 10:23N 34°43' E 134°47'0 0.0
2018-Jun-03 09:53N 34°43' E 134°47'0 0.0
2018-Jun-03 09:11N 34°43' E 134°47'0 0.0
2018-Jun-03 08:59N 34°43' E 134°47'0 0.0
2018-Jun-03 08:26N 34°43' E 134°47'0 0.0
2018-Jun-03 03:23N 34°43' E 134°47'0 0.0
2018-Jun-03 01:35N 34°43' E 134°47'0 0.0
2018-Jun-03 01:11N 34°43' E 134°47'0 0.0
2018-Jun-03 00:53N 34°43' E 134°47'0 0.1
2018-Jun-03 00:29N 34°43' E 134°47'0 0.1
2018-Jun-02 23:29N 34°43' E 134°47'0 0.0
2018-Jun-02 22:56N 34°43' E 134°47'0 0.0
2018-Jun-02 22:29N 34°43' E 134°47'0 0.0
2018-Jun-02 21:56N 34°43' E 134°47'0 0.0
2018-Jun-02 21:05N 34°43' E 134°47'0 0.0
2018-Jun-02 20:56N 34°43' E 134°47'0 0.0
2018-Jun-02 20:23N 34°43' E 134°47'0 0.0
2018-Jun-02 19:59N 34°43' E 134°47'0 0.0
2018-Jun-02 19:29N 34°43' E 134°47'0 0.0
2018-Jun-02 18:59N 34°43' E 134°47'0 0.0
2018-Jun-02 18:29N 34°43' E 134°47'0 0.0
2018-Jun-02 17:59N 34°43' E 134°47'0 0.0
2018-Jun-02 17:26N 34°43' E 134°47'0 0.0
2018-Jun-02 16:59N 34°43' E 134°47'0 0.0
2018-Jun-02 16:29N 34°43' E 134°47'0 0.1
2018-Jun-02 15:59N 34°43' E 134°47'0 0.0
2018-Jun-02 14:35N 34°43' E 134°47'0 0.0
2018-Jun-02 14:17N 34°43' E 134°47'0 0.0
2018-Jun-02 13:47N 34°43' E 134°47'0 0.0
2018-Jun-02 13:26N 34°43' E 134°47'0 0.0
2018-Jun-02 12:59N 34°43' E 134°47'0 0.0
2018-Jun-02 12:29N 34°43' E 134°47'0 0.0
2018-Jun-02 10:50N 34°43' E 134°47'0 0.1
2018-Jun-02 10:20N 34°43' E 134°47'0 0.0
2018-Jun-02 08:56N 34°43' E 134°47'6 6.6
2018-Jun-02 08:00N 34°42' E 134°40'  
Track history (hours):
 
Tides and Currents Weather Stations Pressure Air Temp Water Temp Dewpoint Dewpoint Depression Visibility Wind Speed Wind Dir Waves Ship Positions

Hikosan Maru

Last reported at 2018-Jun-06 06:48 UTC. Time now 2018-Jun-18 22:25 UTC.
Position N 34°24' E 134°14'.
Warning: this ship's position is 12 days out of date.

Length 74 m; draft 4.2 m.

Type: Cargo ship. MMSI: 431005844.

Date/timePositionNaut miles runAvg speedWind from/ knotsBaromVisibWave heightAir tempDewpointWater temp
2018-Jun-06 06:48N 34°24' E 134°14'611.5
2018-Jun-06 06:18N 34°25' E 134°21'311.6
2018-Jun-06 06:00N 34°27' E 134°25'611.8
2018-Jun-06 05:30N 34°29' E 134°31'611.7
2018-Jun-06 05:00N 34°31' E 134°38'612.0
2018-Jun-06 04:30N 34°33' E 134°45'613.1
2018-Jun-06 04:00N 34°35' E 134°52'612.5
2018-Jun-06 03:30N 34°38' E 134°59'611.4
2018-Jun-06 02:59N 34°36' E 135°06'612.4
2018-Jun-06 02:30N 34°37' E 135°13'510.6
2018-Jun-06 02:00N 34°40' E 135°18'3 4.1
2018-Jun-06 01:22N 34°42' E 135°16'0 0.0
2018-Jun-06 00:46N 34°42' E 135°16'0 0.0
2018-Jun-06 00:28N 34°42' E 135°16'0 0.0
2018-Jun-05 23:40N 34°42' E 135°16'0 0.0
2018-Jun-05 23:22N 34°42' E 135°16'0 0.0
2018-Jun-05 22:58N 34°42' E 135°16'1 2.1
2018-Jun-05 22:30N 34°42' E 135°17'4 7.0
2018-Jun-05 22:00N 34°39' E 135°19'0 0.1
2018-Jun-05 21:20N 34°39' E 135°19'0 0.0
2018-Jun-05 20:56N 34°39' E 135°19'0 0.0
2018-Jun-05 20:26N 34°39' E 135°19'0 0.0
2018-Jun-05 19:56N 34°39' E 135°19'0 0.0
2018-Jun-05 19:20N 34°39' E 135°19'0 0.0
2018-Jun-05 18:56N 34°39' E 135°19'0 0.0
2018-Jun-05 18:20N 34°39' E 135°19'0 0.0
2018-Jun-05 17:56N 34°39' E 135°19'0 0.0
2018-Jun-05 17:29N 34°39' E 135°19'0 0.0
2018-Jun-05 16:56N 34°39' E 135°19'0 0.0
2018-Jun-05 16:26N 34°39' E 135°19'0 0.0
2018-Jun-05 15:56N 34°39' E 135°19'0 0.0
2018-Jun-05 15:26N 34°39' E 135°19'0 0.0
2018-Jun-05 14:50N 34°39' E 135°19'0 0.0
2018-Jun-05 14:26N 34°39' E 135°19'0 0.0
2018-Jun-05 13:50N 34°39' E 135°19'0 0.1
2018-Jun-05 13:20N 34°39' E 135°19'0 0.0
2018-Jun-05 12:56N 34°39' E 135°19'0 0.0
2018-Jun-05 12:26N 34°39' E 135°19'0 0.0
2018-Jun-05 12:00N 34°39' E 135°19'4 9.0
2018-Jun-05 11:30N 34°36' E 135°15'611.9
2018-Jun-05 11:00N 34°34' E 135°08'611.9
2018-Jun-05 10:30N 34°37' E 135°02'713.1
2018-Jun-05 09:57N 34°35' E 134°53'612.8
2018-Jun-05 09:30N 34°33' E 134°47'611.8
2018-Jun-05 09:00N 34°30' E 134°40'611.7
2018-Jun-05 08:30N 34°28' E 134°34'611.5
2018-Jun-05 08:00N 34°26' E 134°27'611.7
2018-Jun-05 07:29N 34°24' E 134°20'18 0.8
2018-Jun-04 07:46N 34°26' E 133°58'19 9.9
2018-Jun-04 05:50N 34°36' E 134°18'1611.2
2018-Jun-04 04:26N 34°42' E 134°36'511.1
2018-Jun-04 03:58N 34°43' E 134°42'5 0.9
2018-Jun-03 21:56N 34°44' E 134°48'1 3.1
2018-Jun-03 21:30N 34°43' E 134°47'0 0.0
2018-Jun-03 17:59N 34°43' E 134°47'0 0.1
2018-Jun-03 17:26N 34°43' E 134°47'0 0.0
2018-Jun-03 15:41N 34°43' E 134°47'0 0.0
2018-Jun-03 15:23N 34°43' E 134°47'0 0.0
2018-Jun-03 14:53N 34°43' E 134°47'0 0.0
2018-Jun-03 14:29N 34°43' E 134°47'0 0.0
2018-Jun-03 13:59N 34°43' E 134°47'0 0.0
2018-Jun-03 13:23N 34°43' E 134°47'0 0.0
2018-Jun-03 12:59N 34°43' E 134°47'0 0.0
2018-Jun-03 11:14N 34°43' E 134°47'0 0.0
2018-Jun-03 10:59N 34°43' E 134°47'0 0.0
2018-Jun-03 10:23N 34°43' E 134°47'0 0.0
2018-Jun-03 09:53N 34°43' E 134°47'0 0.0
2018-Jun-03 09:11N 34°43' E 134°47'0 0.0
2018-Jun-03 08:59N 34°43' E 134°47'0 0.0
2018-Jun-03 08:26N 34°43' E 134°47'0 0.0
2018-Jun-03 03:23N 34°43' E 134°47'0 0.0
2018-Jun-03 01:35N 34°43' E 134°47'0 0.0
2018-Jun-03 01:11N 34°43' E 134°47'0 0.0
2018-Jun-03 00:53N 34°43' E 134°47'0 0.1
2018-Jun-03 00:29N 34°43' E 134°47'0 0.1
2018-Jun-02 23:29N 34°43' E 134°47'0 0.0
2018-Jun-02 22:56N 34°43' E 134°47'0 0.0
2018-Jun-02 22:29N 34°43' E 134°47'0 0.0
2018-Jun-02 21:56N 34°43' E 134°47'0 0.0
2018-Jun-02 21:05N 34°43' E 134°47'0 0.0
2018-Jun-02 20:56N 34°43' E 134°47'0 0.0
2018-Jun-02 20:23N 34°43' E 134°47'0 0.0
2018-Jun-02 19:59N 34°43' E 134°47'0 0.0
2018-Jun-02 19:29N 34°43' E 134°47'0 0.0
2018-Jun-02 18:59N 34°43' E 134°47'0 0.0
2018-Jun-02 18:29N 34°43' E 134°47'0 0.0
2018-Jun-02 17:59N 34°43' E 134°47'0 0.0
2018-Jun-02 17:26N 34°43' E 134°47'0 0.0
2018-Jun-02 16:59N 34°43' E 134°47'0 0.0
2018-Jun-02 16:29N 34°43' E 134°47'0 0.1
2018-Jun-02 15:59N 34°43' E 134°47'0 0.0
2018-Jun-02 14:35N 34°43' E 134°47'0 0.0
2018-Jun-02 14:17N 34°43' E 134°47'0 0.0
2018-Jun-02 13:47N 34°43' E 134°47'0 0.0
2018-Jun-02 13:26N 34°43' E 134°47'0 0.0
2018-Jun-02 12:59N 34°43' E 134°47'0 0.0
2018-Jun-02 12:29N 34°43' E 134°47'0 0.0
2018-Jun-02 10:50N 34°43' E 134°47'0 0.1
2018-Jun-02 10:20N 34°43' E 134°47'0 0.0
2018-Jun-02 08:56N 34°43' E 134°47'6 6.6
2018-Jun-02 08:00N 34°42' E 134°40'  

Dump ship's entire track history